Delphos, OH (45833)

3:24 AM EDT on August 30, 2016 (GMT -0400)
2.3 MI. ESE Delphos | | Change Station

Elev 778 ft 40.83 °N, 84.30 °W | Updated 7 minutes ago

Clear
Clear
64.0 °F
Feels Like 64.0 °F
N
0.0
Wind Variable Wind from NE

Today
High -- | Low -- °F
--% Chance of Precip.
Yesterday
High -- | Low -- °F
Precip. -- in
Pressure 30.18 in
Visibility 10.0 miles
Clouds Clear
Dew Point 62 °F
Humidity 93%
Rainfall 0.00 in
Snow Depth Not available.
7:02 AM 8:12 PM
Waning Crescent, 5% visible
METAR KAOH 300653Z AUTO 11003KT 10SM CLR 17/17 A3020 RMK AO2 SLP220 T01720172
Pressure 30.18 in
Visibility 10.0 miles
Clouds Clear
Dew Point 62 °F
Humidity 93%
Rainfall 0.00 in
Snow Depth Not available.
7:02 AM 8:12 PM
Waning Crescent, 5% visible
METAR KAOH 300653Z AUTO 11003KT 10SM CLR 17/17 A3020 RMK AO2 SLP220 T01720172

10-Day Weather Forecast

Almanac

Astronomy

Aug. 30, 2016 Rise Set
Actual Time
Civil Twilight
Nautical Twilight
Astronomical Twilight
Moon
Length of Visible Light
Length of Day
Tomorrow will be .
, % of the Moon is Illuminated

Today's Extremes

State Highs State Lows

Community

WunderPhotos

Upload Photos

1,935,795 photos uploaded!

WunderBlog® & News

Nearby

Air Quality

  Air Quality AQ Index Pollutant
Not available.

Snow Depth

Station Depth Elevation

Earthquake Activity

City Distance Mag. Time & Date
Minimum magnitude displayed is 2.5.

Coastal Water Temperatures

Place Temperature

Stations

Nearby Weather Stations

Station Location Temp. Windchill Dew Point Humidity Wind Precip. Elev Updated Type
                   

Watches & Warnings

There are currently no watches in effect.